Ellington — 9V2908 — position and weather

sailwx.info

Track history (hours):
 
Tides and Currents Weather Stations Pressure Air Temp Water Temp Dewpoint Dewpoint Depression Visibility Wind Speed Wind Dir Waves Ship Positions

Ellington

Last reported at 2018-Jun-12 06:33 UTC. Time now 2018-Jun-18 02:13 UTC.
Position N 01°31' E 103°08'.

Length 159 m; draft 6.8 m.

MMSI: 563000100.

Date/timePositionNaut miles runAvg speedWind from/ knotsBaromVisibWave heightAir tempDewpointWater temp
2018-Jun-12 06:33N 01°31' E 103°08'113.9
2018-Jun-12 06:30N 01°31' E 103°08'815.2
2018-Jun-12 05:57N 01°25' E 103°14'714.4
2018-Jun-12 05:27N 01°20' E 103°20'714.5
2018-Jun-12 04:59N 01°15' E 103°24'612.9
2018-Jun-12 04:30N 01°13' E 103°30'612.0
2018-Jun-12 04:01N 01°12' E 103°36'611.5
2018-Jun-12 03:30N 01°10' E 103°42'1 1.8
2018-Jun-12 02:59N 01°10' E 103°42'0 0.0
2018-Jun-12 02:29N 01°10' E 103°42'0 0.0
2018-Jun-12 02:00N 01°10' E 103°42'0 0.0
2018-Jun-12 01:28N 01°10' E 103°42'0 0.1
2018-Jun-12 00:56N 01°10' E 103°42'0 0.1
2018-Jun-12 00:28N 01°10' E 103°42'0 0.1
2018-Jun-11 23:59N 01°10' E 103°42'0 0.1
2018-Jun-11 23:30N 01°10' E 103°42'0 0.0
2018-Jun-11 22:56N 01°10' E 103°42'0 0.0
2018-Jun-11 22:24N 01°10' E 103°42'0 0.0
2018-Jun-11 22:00N 01°10' E 103°42'0 0.0
2018-Jun-11 21:30N 01°10' E 103°42'0 0.0
2018-Jun-11 21:00N 01°10' E 103°42'0 0.0
2018-Jun-11 20:30N 01°10' E 103°42'0 0.0
2018-Jun-11 20:00N 01°10' E 103°42'0 0.0
2018-Jun-11 19:23N 01°10' E 103°42'0 0.0
2018-Jun-11 18:59N 01°10' E 103°42'0 0.0
2018-Jun-11 18:30N 01°10' E 103°42'0 0.0
2018-Jun-11 17:59N 01°10' E 103°42'0 0.0
2018-Jun-11 17:26N 01°10' E 103°42'0 0.0
2018-Jun-11 16:49N 01°10' E 103°42'0 0.0
2018-Jun-11 16:30N 01°10' E 103°42'0 0.0
2018-Jun-11 16:00N 01°10' E 103°42'0 0.0
2018-Jun-11 15:30N 01°10' E 103°42'0 0.1
2018-Jun-11 14:59N 01°10' E 103°42'1 1.3
2018-Jun-11 14:30N 01°10' E 103°43'3 5.7
2018-Jun-11 14:00N 01°10' E 103°46'4 8.8
2018-Jun-11 13:31N 01°11' E 103°50'4 8.6
2018-Jun-11 13:00N 01°13' E 103°54'4 8.1
2018-Jun-11 12:28N 01°15' E 103°58'4 9.4
2018-Jun-11 12:00N 01°16' E 104°02'5 9.5
2018-Jun-11 11:31N 01°17' E 104°07'5 9.5
2018-Jun-11 11:00N 01°17' E 104°11'5 9.2
2018-Jun-11 10:30N 01°18' E 104°16'4 7.2
2018-Jun-11 10:00N 01°19' E 104°19'713.5
2018-Jun-11 09:29N 01°23' E 104°25'  
2018-Jun-05 10:21N 30°28' E 122°45'917.5
2018-Jun-05 09:51N 30°30' E 122°35'1115.9
2018-Jun-05 09:10N 30°32' E 122°23'2011.4
2018-Jun-05 07:26N 30°31' E 121°60'5 9.8
2018-Jun-05 06:58N 30°31' E 121°55'4 8.0
2018-Jun-05 06:28N 30°31' E 121°50'4 8.9
2018-Jun-05 05:59N 30°31' E 121°45'  
Track history (hours):
 
Tides and Currents Weather Stations Pressure Air Temp Water Temp Dewpoint Dewpoint Depression Visibility Wind Speed Wind Dir Waves Ship Positions

Ellington

Last reported at 2018-Jun-12 06:33 UTC. Time now 2018-Jun-18 02:13 UTC.
Position N 01°31' E 103°08'.

Length 159 m; draft 6.8 m.

MMSI: 563000100.

Date/timePositionNaut miles runAvg speedWind from/ knotsBaromVisibWave heightAir tempDewpointWater temp
2018-Jun-12 06:33N 01°31' E 103°08'113.9
2018-Jun-12 06:30N 01°31' E 103°08'815.2
2018-Jun-12 05:57N 01°25' E 103°14'714.4
2018-Jun-12 05:27N 01°20' E 103°20'714.5
2018-Jun-12 04:59N 01°15' E 103°24'612.9
2018-Jun-12 04:30N 01°13' E 103°30'612.0
2018-Jun-12 04:01N 01°12' E 103°36'611.5
2018-Jun-12 03:30N 01°10' E 103°42'1 1.8
2018-Jun-12 02:59N 01°10' E 103°42'0 0.0
2018-Jun-12 02:29N 01°10' E 103°42'0 0.0
2018-Jun-12 02:00N 01°10' E 103°42'0 0.0
2018-Jun-12 01:28N 01°10' E 103°42'0 0.1
2018-Jun-12 00:56N 01°10' E 103°42'0 0.1
2018-Jun-12 00:28N 01°10' E 103°42'0 0.1
2018-Jun-11 23:59N 01°10' E 103°42'0 0.1
2018-Jun-11 23:30N 01°10' E 103°42'0 0.0
2018-Jun-11 22:56N 01°10' E 103°42'0 0.0
2018-Jun-11 22:24N 01°10' E 103°42'0 0.0
2018-Jun-11 22:00N 01°10' E 103°42'0 0.0
2018-Jun-11 21:30N 01°10' E 103°42'0 0.0
2018-Jun-11 21:00N 01°10' E 103°42'0 0.0
2018-Jun-11 20:30N 01°10' E 103°42'0 0.0
2018-Jun-11 20:00N 01°10' E 103°42'0 0.0
2018-Jun-11 19:23N 01°10' E 103°42'0 0.0
2018-Jun-11 18:59N 01°10' E 103°42'0 0.0
2018-Jun-11 18:30N 01°10' E 103°42'0 0.0
2018-Jun-11 17:59N 01°10' E 103°42'0 0.0
2018-Jun-11 17:26N 01°10' E 103°42'0 0.0
2018-Jun-11 16:49N 01°10' E 103°42'0 0.0
2018-Jun-11 16:30N 01°10' E 103°42'0 0.0
2018-Jun-11 16:00N 01°10' E 103°42'0 0.0
2018-Jun-11 15:30N 01°10' E 103°42'0 0.1
2018-Jun-11 14:59N 01°10' E 103°42'1 1.3
2018-Jun-11 14:30N 01°10' E 103°43'3 5.7
2018-Jun-11 14:00N 01°10' E 103°46'4 8.8
2018-Jun-11 13:31N 01°11' E 103°50'4 8.6
2018-Jun-11 13:00N 01°13' E 103°54'4 8.1
2018-Jun-11 12:28N 01°15' E 103°58'4 9.4
2018-Jun-11 12:00N 01°16' E 104°02'5 9.5
2018-Jun-11 11:31N 01°17' E 104°07'5 9.5
2018-Jun-11 11:00N 01°17' E 104°11'5 9.2
2018-Jun-11 10:30N 01°18' E 104°16'4 7.2
2018-Jun-11 10:00N 01°19' E 104°19'713.5
2018-Jun-11 09:29N 01°23' E 104°25'  
2018-Jun-05 10:21N 30°28' E 122°45'917.5
2018-Jun-05 09:51N 30°30' E 122°35'1115.9
2018-Jun-05 09:10N 30°32' E 122°23'2011.4
2018-Jun-05 07:26N 30°31' E 121°60'5 9.8
2018-Jun-05 06:58N 30°31' E 121°55'4 8.0
2018-Jun-05 06:28N 30°31' E 121°50'4 8.9
2018-Jun-05 05:59N 30°31' E 121°45'  

Dump ship's entire track history